Japan Airlines Virtual Airport Information Service

Santiago International Airport

ICAO: SCEL Country: Chile
Latitude: -33.3929 Longitude: -70.7858
Latest Arrival : AFR402 (LFPG-SCEL) Latest Departure : BAW250 (2) (SCEL-EGLL)


WX CaptureLIVE
Data provided by noaa.gov | Fetched at 17:30:43

METAR : SCEL 291700Z 19008KT 9999 SCT030 BKN180 BKN250 14/05 Q1018NOSIG

TAF : SCEL 291306Z 2913/3012 18005KT 8000 SCT017 BKN025 TX16/2919Z TN04/3011Z BECMG 2915/2917 9999 SCT030 SCT180 BECMG 2918/2920 21013KT FEW040 BKN160 TEMPO 2920/2924 26015KT 8000 -SHRA SCT035 BKN130 BECMG 3001/3003 16007KT 7000 NSC


Runway Data for SCEL
Data provided by openaviationdata.com

Runway ID Mag Var Hdg Length Elevation Surface ILS Freq ILS Id ILS Slope
17 4 173° 12318 ft 1555 ft Asphalt 110.3 IUEL 3
35 4 353° 12318 ft 1555 ft Asphalt -- -- --

Santiago International Airport, Chile
Use only for reference purposes



Not for navigational purposes.